Time;durP1;ratioP1;P1;durP2;ratioP2;P2;SDS_P1;SDS_P2;PMS_P1;PMS_P2;Temp;Humidity;BMP_temperature;BMP_pressure;BME280_temperature;BME280_humidity;BME280_pressure;Samples;Min_cycle;Max_cycle;Signal;HPM_P1;HPM_P2
2024/03/17 00:00:40;;;;;;;0.00;0.00;;;;;;;10.40;100.00;100507.59;6183160;23;20062;-78
2024/03/17 00:03:08;;;;;;;0.00;0.00;;;;;;;10.35;100.00;100499.34;6161124;23;20009;-77
2024/03/17 00:05:36;;;;;;;0.00;0.00;;;;;;;10.43;100.00;100512.53;6184995;23;20008;-77
2024/03/17 00:08:04;;;;;;;0.00;0.00;;;;;;;10.44;100.00;100508.69;6159526;23;20007;-75
2024/03/17 00:10:31;;;;;;;0.00;0.00;;;;;;;10.37;100.00;100500.75;6184784;23;20015;-78
2024/03/17 00:12:57;;;;;;;0.00;0.00;;;;;;;10.42;100.00;100500.75;6183609;23;20099;-77
2024/03/17 00:15:22;;;;;;;0.00;0.00;;;;;;;10.45;100.00;100513.09;6186703;23;20083;-77
2024/03/17 00:17:48;;;;;;;0.00;0.00;;;;;;;10.45;100.00;100511.19;6156846;23;20518;-77
2024/03/17 00:20:18;;;;;;;0.00;0.00;;;;;;;10.44;100.00;100503.22;6136533;23;20091;-76
2024/03/17 00:22:47;;;;;;;0.00;0.00;;;;;;;10.39;100.00;100495.00;6185224;23;20308;-77
2024/03/17 00:25:12;;;;;;;0.00;0.00;;;;;;;10.44;100.00;100493.13;6211090;23;20001;-77
2024/03/17 00:27:40;;;;;;;0.00;0.00;;;;;;;10.38;100.00;100483.25;6160459;23;20028;-77
2024/03/17 00:30:13;;;;;;;0.00;0.00;;;;;;;10.44;100.00;100495.03;6161065;23;20000;-78
2024/03/17 00:32:40;;;;;;;0.00;0.00;;;;;;;10.37;100.00;100476.13;6185318;23;20012;-78
2024/03/17 00:35:10;;;;;;;0.00;0.00;;;;;;;10.39;100.00;100473.13;6157292;23;20020;-77
2024/03/17 00:37:36;;;;;;;0.00;0.00;;;;;;;10.41;100.00;100470.97;6208862;23;20009;-76
2024/03/17 00:40:06;;;;;;;0.00;0.00;;;;;;;10.45;100.00;100472.94;6135127;23;20032;-76
2024/03/17 00:42:32;;;;;;;0.00;0.00;;;;;;;10.36;100.00;100458.09;6136367;23;20004;-77
2024/03/17 00:44:59;;;;;;;0.00;0.00;;;;;;;10.49;100.00;100475.94;6185854;23;20384;-76
2024/03/17 00:47:25;;;;;;;0.00;0.00;;;;;;;10.50;100.00;100480.31;6157067;23;20427;-75
2024/03/17 00:49:50;;;;;;;0.00;0.00;;;;;;;10.54;100.00;100473.25;6185388;23;20084;-75
2024/03/17 00:52:16;;;;;;;0.00;0.00;;;;;;;10.51;100.00;100465.56;6208523;23;20036;-76
2024/03/17 00:54:51;;;;;;;0.00;0.00;;;;;;;10.48;100.00;100455.16;6211858;23;19997;-77
2024/03/17 00:57:16;;;;;;;0.00;0.00;;;;;;;10.63;100.00;100468.91;6158651;23;20091;-77
2024/03/17 00:59:48;;;;;;;0.00;0.00;;;;;;;10.63;100.00;100465.34;6211841;23;20403;-77
2024/03/17 01:02:18;;;;;;;0.00;0.00;;;;;;;10.55;100.00;100449.44;6158794;23;20447;-77
2024/03/17 01:04:49;;;;;;;0.00;0.00;;;;;;;10.52;100.00;100445.34;6184638;23;20004;-77
2024/03/17 01:07:14;;;;;;;0.00;0.00;;;;;;;10.50;100.00;100442.06;6210301;23;20410;-75
2024/03/17 01:09:40;;;;;;;0.00;0.00;;;;;;;10.56;100.00;100456.56;6183770;23;20005;-75
2024/03/17 01:12:08;;;;;;;0.00;0.00;;;;;;;10.59;100.00;100456.84;6159653;23;20008;-76
2024/03/17 01:14:34;;;;;;;0.00;0.00;;;;;;;10.61;100.00;100442.91;6157857;23;20013;-76
2024/03/17 01:17:00;;;;;;;0.00;0.00;;;;;;;10.54;100.00;100434.97;6185573;23;20020;-75
2024/03/17 01:19:26;;;;;;;0.00;0.00;;;;;;;10.56;100.00;100435.50;6181705;23;20000;-76
2024/03/17 01:21:52;;;;;;;0.00;0.00;;;;;;;10.60;100.00;100436.63;6184575;23;20064;-75
2024/03/17 01:24:18;;;;;;;0.00;0.00;;;;;;;10.59;100.00;100429.50;6182934;23;20008;-75
2024/03/17 01:26:43;;;;;;;0.00;0.00;;;;;;;10.57;100.00;100431.69;6209782;23;20482;-77
2024/03/17 01:29:09;;;;;;;0.00;0.00;;;;;;;10.55;100.00;100417.44;6184772;23;20021;-77
2024/03/17 01:31:37;;;;;;;0.00;0.00;;;;;;;10.55;100.00;100420.19;6181354;23;20066;-76
2024/03/17 01:34:03;;;;;;;0.00;0.00;;;;;;;10.63;100.00;100422.44;6158765;23;20035;-77
2024/03/17 01:36:29;;;;;;;0.00;0.00;;;;;;;10.55;100.00;100406.50;6209735;23;20428;-77
2024/03/17 01:38:54;;;;;;;0.00;0.00;;;;;;;10.51;100.00;100399.94;6132350;23;20047;-76
2024/03/17 01:41:19;;;;;;;0.00;0.00;;;;;;;10.61;100.00;100410.91;6160727;23;20013;-76
2024/03/17 01:43:45;;;;;;;0.00;0.00;;;;;;;10.54;100.00;100399.44;6209709;23;20797;-77
2024/03/17 01:46:17;;;;;;;0.00;0.00;;;;;;;10.47;100.00;100374.22;6183913;23;20332;-76
2024/03/17 01:48:46;;;;;;;0.00;0.00;;;;;;;10.50;100.00;100376.44;6181813;23;20010;-76
2024/03/17 01:51:14;;;;;;;0.10;0.10;;;;;;;10.50;100.00;100375.59;6161609;23;20005;-75
2024/03/17 01:53:40;;;;;;;0.00;0.00;;;;;;;10.52;100.00;100385.19;6209256;23;20004;-77
2024/03/17 01:56:09;;;;;;;0.00;0.00;;;;;;;10.54;100.00;100388.50;6184689;23;20008;-75
2024/03/17 01:58:36;;;;;;;0.00;0.00;;;;;;;10.56;100.00;100388.22;6210042;23;20004;-77
2024/03/17 02:01:04;;;;;;;0.00;0.00;;;;;;;10.46;100.00;100378.06;6180916;23;20005;-77
2024/03/17 02:03:30;;;;;;;0.00;0.00;;;;;;;10.43;100.00;100379.41;6160269;23;20005;-74
2024/03/17 02:05:58;;;;;;;0.00;0.00;;;;;;;10.42;100.00;100364.06;6180132;23;20009;-77
2024/03/17 02:08:24;;;;;;;0.00;0.00;;;;;;;10.35;100.00;100359.94;6184329;23;20015;-78
2024/03/17 02:10:54;;;;;;;0.00;0.00;;;;;;;10.41;100.00;100367.06;6183270;23;20029;-76
2024/03/17 02:13:21;;;;;;;0.00;0.00;;;;;;;10.40;100.00;100371.72;6161212;23;20008;-76
2024/03/17 02:15:46;;;;;;;0.00;0.00;;;;;;;10.29;100.00;100348.97;6182826;23;20066;-76
2024/03/17 02:18:12;;;;;;;0.00;0.00;;;;;;;10.43;100.00;100364.91;6181375;23;20016;-76
2024/03/17 02:20:55;;;;;;;0.00;0.00;;;;;;;10.40;100.00;100360.78;6184522;23;20443;-75
2024/03/17 02:23:21;;;;;;;0.00;0.00;;;;;;;10.39;100.00;100358.34;6163958;23;20447;-76
2024/03/17 02:25:47;;;;;;;0.00;0.00;;;;;;;10.40;100.00;100351.78;6183893;23;20009;-75
2024/03/17 02:28:13;;;;;;;0.00;0.00;;;;;;;10.43;100.00;100353.97;6133334;23;20021;-76
2024/03/17 02:30:38;;;;;;;0.00;0.00;;;;;;;10.50;100.00;100360.03;6134577;23;20026;-76
2024/03/17 02:33:04;;;;;;;0.00;0.00;;;;;;;10.51;100.00;100356.19;6156445;23;20021;-75
2024/03/17 02:35:29;;;;;;;0.00;0.00;;;;;;;10.48;100.00;100351.25;6158232;23;20048;-75
2024/03/17 02:37:55;;;;;;;0.00;0.00;;;;;;;10.50;100.00;100346.34;6158911;23;20004;-78
2024/03/17 02:40:20;;;;;;;0.00;0.00;;;;;;;10.55;100.00;100349.09;6159285;23;20005;-76
2024/03/17 02:42:48;;;;;;;0.00;0.00;;;;;;;10.40;100.00;100322.53;6183559;23;20005;-77
2024/03/17 02:45:14;;;;;;;0.00;0.00;;;;;;;10.41;100.00;100326.06;6158741;23;20034;-77
2024/03/17 02:47:39;;;;;;;0.00;0.00;;;;;;;10.48;100.00;100330.22;6160501;23;20479;-78
2024/03/17 02:50:06;;;;;;;0.05;0.05;;;;;;;10.44;100.00;100328.28;6159434;23;20004;-78
2024/03/17 02:52:34;;;;;;;0.00;0.00;;;;;;;10.42;100.00;100325.00;6213800;23;20010;-77
2024/03/17 02:55:00;;;;;;;0.00;0.00;;;;;;;10.37;100.00;100322.25;6162118;23;20004;-78
2024/03/17 02:57:29;;;;;;;0.00;0.00;;;;;;;10.21;100.00;100297.53;6185250;23;20043;-78
2024/03/17 02:59:58;;;;;;;0.00;0.00;;;;;;;10.27;100.00;100310.13;6139347;23;20012;-78
2024/03/17 03:02:24;;;;;;;0.00;0.00;;;;;;;10.20;100.00;100290.44;6183658;23;20027;-78
2024/03/17 03:04:49;;;;;;;0.00;0.00;;;;;;;10.26;100.00;100294.00;6162923;23;20008;-77
2024/03/17 03:07:15;;;;;;;0.00;0.00;;;;;;;10.28;100.00;100281.72;6159048;23;20019;-78
2024/03/17 03:09:40;;;;;;;0.00;0.00;;;;;;;10.39;100.00;100290.81;6187313;23;20004;-78
2024/03/17 03:12:07;;;;;;;0.00;0.00;;;;;;;10.39;100.00;100290.00;6187105;23;20466;-78
2024/03/17 03:14:33;;;;;;;0.00;0.00;;;;;;;10.47;100.00;100305.88;6131705;23;20009;-79
2024/03/17 03:16:58;;;;;;;0.00;0.00;;;;;;;10.40;100.00;100288.91;6186770;23;20009;-79
2024/03/17 03:19:24;;;;;;;0.00;0.00;;;;;;;10.35;100.00;100269.75;6185097;23;20024;-79
2024/03/17 03:21:50;;;;;;;0.00;0.00;;;;;;;10.28;100.00;100261.78;6159100;23;20008;-77
2024/03/17 03:24:16;;;;;;;0.00;0.00;;;;;;;10.48;100.00;100288.38;6186451;23;20009;-78
2024/03/17 03:26:43;;;;;;;0.00;0.00;;;;;;;10.39;100.00;100271.66;6158634;23;20335;-77
2024/03/17 03:29:11;;;;;;;0.00;0.00;;;;;;;10.50;100.00;100288.94;6211721;22;20336;-81
2024/03/17 03:31:39;;;;;;;0.00;0.00;;;;;;;10.44;100.00;100270.84;6182727;23;20016;-77
2024/03/17 03:34:07;;;;;;;0.00;0.00;;;;;;;10.51;100.00;100276.91;6161262;23;20086;-77
2024/03/17 03:36:33;;;;;;;0.00;0.00;;;;;;;10.54;100.00;100276.38;6182595;23;20022;-78
2024/03/17 03:38:58;;;;;;;0.10;0.10;;;;;;;10.57;100.00;100277.75;6184957;23;20333;-78
2024/03/17 03:41:24;;;;;;;0.00;0.00;;;;;;;10.56;100.00;100285.13;6181132;23;20585;-77
2024/03/17 03:43:50;;;;;;;0.00;0.00;;;;;;;10.56;100.00;100266.00;6134031;23;20490;-78
2024/03/17 03:46:15;;;;;;;0.00;0.00;;;;;;;10.55;100.00;100266.25;6160704;23;20012;-77
2024/03/17 03:48:41;;;;;;;0.00;0.00;;;;;;;10.59;100.00;100257.25;6159642;23;20008;-76
2024/03/17 03:51:07;;;;;;;0.10;0.10;;;;;;;10.55;100.00;100258.88;6158741;23;20015;-77
2024/03/17 03:53:34;;;;;;;0.00;0.00;;;;;;;10.59;100.00;100265.44;6210292;23;20542;-79
2024/03/17 03:56:01;;;;;;;0.00;0.00;;;;;;;10.57;100.00;100253.13;6183441;23;20012;-77
2024/03/17 03:58:28;;;;;;;0.00;0.00;;;;;;;10.54;100.00;100246.31;6184099;23;20011;-77
2024/03/17 04:00:55;;;;;;;0.00;0.00;;;;;;;10.51;100.00;100244.09;6210477;23;20004;-76
2024/03/17 04:03:20;;;;;;;0.00;0.00;;;;;;;10.55;100.00;100247.94;6186138;23;20095;-76
2024/03/17 04:05:46;;;;;;;0.00;0.00;;;;;;;10.52;100.00;100243.00;6161085;23;20008;-76
2024/03/17 04:08:11;;;;;;;0.00;0.00;;;;;;;10.58;100.00;100247.38;6157020;23;20386;-76
2024/03/17 04:10:36;;;;;;;0.00;0.00;;;;;;;10.54;100.00;100235.38;6161405;23;20028;-75
2024/03/17 04:13:02;;;;;;;0.00;0.00;;;;;;;10.49;100.00;100232.63;6209350;23;20005;-75
2024/03/17 04:15:28;;;;;;;0.00;0.00;;;;;;;10.50;100.00;100234.25;6135862;23;20066;-76
2024/03/17 04:17:54;;;;;;;0.00;0.00;;;;;;;10.46;100.00;100233.16;6158309;23;20012;-76
2024/03/17 04:20:19;;;;;;;0.00;0.00;;;;;;;10.44;100.00;100230.69;6160975;23;20447;-77
2024/03/17 04:22:44;;;;;;;0.00;0.00;;;;;;;10.37;100.00;100221.13;6161141;23;20004;-76
2024/03/17 04:25:12;;;;;;;0.00;0.00;;;;;;;10.39;100.00;100235.31;6134251;23;20607;-76
2024/03/17 04:27:38;;;;;;;0.00;0.00;;;;;;;10.30;100.00;100227.59;6184551;23;20067;-77
2024/03/17 04:30:05;;;;;;;0.00;0.00;;;;;;;10.29;100.00;100234.19;6133529;23;20021;-76
2024/03/17 04:32:31;;;;;;;0.00;0.00;;;;;;;10.26;100.00;100231.97;6185447;23;20005;-77
2024/03/17 04:34:57;;;;;;;0.00;0.00;;;;;;;10.18;100.00;100227.03;6181737;23;19993;-75
2024/03/17 04:37:22;;;;;;;0.00;0.00;;;;;;;10.16;100.00;100218.28;6135767;23;20058;-77
2024/03/17 04:39:48;;;;;;;0.00;0.00;;;;;;;10.20;100.00;100230.31;6184668;23;20446;-77
2024/03/17 04:42:15;;;;;;;0.00;0.00;;;;;;;10.12;100.00;100223.47;6211221;23;20036;-76
2024/03/17 04:44:42;;;;;;;0.00;0.00;;;;;;;10.10;100.00;100220.19;6132921;23;20012;-77
2024/03/17 04:47:08;;;;;;;0.00;0.00;;;;;;;10.10;100.00;100211.16;6211645;23;20083;-77
2024/03/17 04:49:38;;;;;;;0.00;0.00;;;;;;;10.09;100.00;100217.69;6184051;23;20004;-77
2024/03/17 04:52:04;;;;;;;0.00;0.00;;;;;;;10.06;100.00;100218.22;6210457;23;20028;-78
2024/03/17 04:54:31;;;;;;;0.00;0.00;;;;;;;10.06;100.00;100215.50;6184903;23;20461;-77
2024/03/17 04:56:56;;;;;;;0.00;0.00;;;;;;;10.05;100.00;100211.16;6183003;23;20015;-77
2024/03/17 04:59:22;;;;;;;0.00;0.00;;;;;;;10.02;100.00;100200.75;6159713;23;20092;-75
2024/03/17 05:01:48;;;;;;;0.00;0.00;;;;;;;10.01;100.00;100199.09;6181942;23;20009;-77
2024/03/17 05:04:14;;;;;;;0.05;0.05;;;;;;;10.02;100.00;100207.03;6160009;23;20008;-77
2024/03/17 05:06:41;;;;;;;0.00;0.00;;;;;;;10.05;100.00;100194.75;6159127;23;20327;-76
2024/03/17 05:09:07;;;;;;;0.00;0.00;;;;;;;10.04;100.00;100201.31;6184716;23;20067;-77
2024/03/17 05:11:35;;;;;;;0.00;0.00;;;;;;;9.89;100.00;100178.31;6160388;23;20000;-77
2024/03/17 05:14:00;;;;;;;0.00;0.00;;;;;;;10.06;100.00;100201.84;6182362;23;20095;-78
2024/03/17 05:16:29;;;;;;;0.00;0.00;;;;;;;10.05;100.00;100194.75;6184744;23;20028;-77
2024/03/17 05:18:55;;;;;;;0.00;0.00;;;;;;;10.04;100.00;100195.84;6208649;23;20794;-77
2024/03/17 05:21:22;;;;;;;0.00;0.00;;;;;;;10.04;100.00;100195.84;6134828;23;20008;-77
2024/03/17 05:23:48;;;;;;;0.00;0.00;;;;;;;10.05;100.00;100197.50;6157544;23;20019;-75
2024/03/17 05:26:13;;;;;;;0.00;0.00;;;;;;;10.08;100.00;100197.75;6184793;23;20052;-77
2024/03/17 05:28:39;;;;;;;0.00;0.00;;;;;;;10.04;100.00;100204.03;6159272;23;20047;-77
2024/03/17 05:31:09;;;;;;;0.10;0.10;;;;;;;10.02;100.00;100184.38;6165366;23;20024;-78
2024/03/17 05:33:35;;;;;;;0.00;0.00;;;;;;;10.03;100.00;100186.00;6189634;23;20074;-77
2024/03/17 05:36:03;;;;;;;0.00;0.00;;;;;;;10.06;100.00;100190.91;6159548;23;20012;-77
2024/03/17 05:38:29;;;;;;;0.00;0.00;;;;;;;10.01;100.00;100179.97;6160902;23;20040;-77
2024/03/17 05:41:00;;;;;;;0.00;0.00;;;;;;;10.07;100.00;100187.09;6157130;23;20450;-78
2024/03/17 05:43:26;;;;;;;0.00;0.00;;;;;;;10.06;100.00;100182.72;6182453;23;20016;-77
2024/03/17 05:45:58;;;;;;;0.00;0.00;;;;;;;10.07;100.00;100189.84;6136145;23;20008;-77
2024/03/17 05:48:26;;;;;;;0.00;0.00;;;;;;;10.08;100.00;100194.22;6188885;23;20007;-79
2024/03/17 05:50:52;;;;;;;0.00;0.00;;;;;;;10.04;100.00;100172.06;6189635;23;20001;-79
2024/03/17 05:53:18;;;;;;;0.00;0.00;;;;;;;10.01;100.00;100171.78;6184645;23;20487;-78
2024/03/17 05:55:44;;;;;;;0.00;0.00;;;;;;;10.09;100.00;100174.81;6160353;23;20891;-77
2024/03/17 05:58:10;;;;;;;0.00;0.00;;;;;;;10.11;100.00;100183.56;6184613;23;20004;-77
2024/03/17 06:00:37;;;;;;;0.00;0.00;;;;;;;10.15;100.00;100186.59;6159440;23;20055;-78
2024/03/17 06:03:03;;;;;;;0.00;0.00;;;;;;;10.14;100.00;100176.75;6211421;23;20304;-77
2024/03/17 06:05:32;;;;;;;0.00;0.00;;;;;;;10.17;100.00;100178.13;6183309;23;20005;-77
2024/03/17 06:07:58;;;;;;;0.00;0.00;;;;;;;10.18;100.00;100177.00;6184976;23;20852;-77
2024/03/17 06:10:24;;;;;;;0.00;0.00;;;;;;;10.18;100.00;100177.84;6156609;23;20084;-77
2024/03/17 06:12:51;;;;;;;0.00;0.00;;;;;;;10.22;100.00;100178.97;6183427;23;20005;-76
2024/03/17 06:15:16;;;;;;;0.00;0.00;;;;;;;10.24;100.00;100176.75;6158085;23;20019;-78
2024/03/17 06:17:42;;;;;;;0.00;0.00;;;;;;;10.15;100.00;100162.00;6158577;23;20005;-77
2024/03/17 06:20:11;;;;;;;0.00;0.00;;;;;;;10.16;100.00;100152.69;6159378;23;20004;-78
2024/03/17 06:22:36;;;;;;;0.00;0.00;;;;;;;10.21;100.00;100160.09;6134964;23;20009;-78
2024/03/17 06:25:02;;;;;;;0.00;0.00;;;;;;;10.21;100.00;100160.91;6162235;23;20016;-78
2024/03/17 06:27:28;;;;;;;0.00;0.00;;;;;;;10.27;100.00;100164.47;6184438;23;20056;-79
2024/03/17 06:29:55;;;;;;;0.00;0.00;;;;;;;10.26;100.00;100162.81;6186259;23;20128;-78
2024/03/17 06:32:20;;;;;;;0.00;0.00;;;;;;;10.26;100.00;100158.16;6185503;23;20031;-78
2024/03/17 06:34:46;;;;;;;0.00;0.00;;;;;;;10.27;100.00;100151.63;6188045;23;20071;-77
2024/03/17 06:37:14;;;;;;;0.00;0.00;;;;;;;10.29;100.00;100163.13;6188003;23;20442;-78
2024/03/17 06:39:53;;;;;;;0.00;0.00;;;;;;;10.25;100.00;100156.56;6160214;23;20031;-76
2024/03/17 06:42:19;;;;;;;0.00;0.00;;;;;;;10.22;100.00;100154.38;6186849;23;20403;-78
2024/03/17 06:44:44;;;;;;;0.08;0.08;;;;;;;10.21;100.00;100144.53;6159181;23;20092;-76
2024/03/17 06:47:09;;;;;;;0.00;0.00;;;;;;;10.17;100.00;100142.59;6186207;23;20075;-76
2024/03/17 06:49:35;;;;;;;0.00;0.00;;;;;;;10.10;100.00;100131.91;6135298;23;20432;-77
2024/03/17 06:52:01;;;;;;;0.00;0.00;;;;;;;10.21;100.00;100149.97;6184679;23;20004;-76
2024/03/17 06:54:26;;;;;;;0.00;0.00;;;;;;;10.21;100.00;100144.53;6186159;23;20360;-78
2024/03/17 06:56:51;;;;;;;0.00;0.00;;;;;;;10.27;100.00;100148.09;6184652;23;20142;-79
2024/03/17 06:59:23;;;;;;;0.00;0.00;;;;;;;10.29;100.00;100146.72;6163928;23;20004;-77
2024/03/17 07:02:17;;;;;;;0.00;0.00;;;;;;;10.22;100.00;100135.25;6161896;23;20012;-79
2024/03/17 07:04:44;;;;;;;0.00;0.00;;;;;;;10.18;100.00;100127.81;6213027;23;20062;-78
2024/03/17 07:07:09;;;;;;;0.00;0.00;;;;;;;10.34;100.00;100147.84;6189474;23;20020;-77
2024/03/17 07:09:35;;;;;;;0.00;0.00;;;;;;;10.31;100.00;100143.72;6164725;23;20008;-77
2024/03/17 07:12:00;;;;;;;0.00;0.00;;;;;;;10.28;100.00;100133.34;6188764;23;20005;-77
2024/03/17 07:14:28;;;;;;;0.00;0.00;;;;;;;10.31;100.00;100144.53;6164371;23;20075;-77
2024/03/17 07:16:53;;;;;;;0.00;0.00;;;;;;;10.27;100.00;100137.16;6165479;23;20012;-77
2024/03/17 07:19:22;;;;;;;0.00;0.00;;;;;;;10.27;100.00;100127.03;6189822;23;20000;-77
2024/03/17 07:21:55;;;;;;;0.00;0.00;;;;;;;10.33;100.00;100135.25;6140502;23;20375;-76
2024/03/17 07:24:33;;;;;;;0.00;0.00;;;;;;;10.20;100.00;100118.28;6188841;23;20087;-76
2024/03/17 07:26:59;;;;;;;0.00;0.00;;;;;;;10.29;100.00;100130.34;6188826;22;20499;-76
2024/03/17 07:29:35;;;;;;;0.00;0.00;;;;;;;10.29;100.00;100130.34;6188829;23;20039;-76
2024/03/17 07:32:26;;;;;;;0.03;0.03;;;;;;;10.37;100.00;100136.38;6190435;23;20020;-77
2024/03/17 07:35:01;;;;;;;0.00;0.00;;;;;;;10.25;100.00;100115.56;6168989;23;20028;-76
2024/03/17 07:38:05;;;;;;;;;;;;;;;;;;;;;
2024/03/17 07:40:37;;;;;;;0.00;0.00;;;;;;;10.55;100.00;100133.09;6216503;23;20076;-78
2024/03/17 07:43:32;;;;;;;0.00;0.00;;;;;;;10.55;100.00;100130.38;6189767;23;20028;-78
2024/03/17 07:46:28;;;;;;;;;;;;;;;10.68;100.00;100142.69;6167731;23;20032;-78
2024/03/17 07:49:04;;;;;;;0.00;0.00;;;;;;;10.70;100.00;100145.94;6211786;23;19975;-77
2024/03/17 07:51:40;;;;;;;;;;;;;;;;;;;;;
2024/03/17 07:54:44;;;;;;;0.00;0.00;;;;;;;10.57;100.00;100130.09;6217714;23;20071;-78
2024/03/17 07:57:35;;;;;;;0.00;0.00;;;;;;;10.54;100.00;100120.53;6188743;23;20001;-78
2024/03/17 08:00:25;;;;;;;;;;;;;;;;;;;;;
2024/03/17 08:03:31;;;;;;;0.00;0.00;;;;;;;10.61;100.00;100104.66;6193119;23;20080;-78
2024/03/17 08:06:29;;;;;;;;;;;;;;;;;;;;;
2024/03/17 08:09:20;;;;;;;0.00;0.00;;;;;;;10.76;100.00;100097.53;6201275;23;20083;-77
2024/03/17 08:11:53;;;;;;;0.00;0.00;;;;;;;10.87;100.00;100099.16;6188305;23;20017;-77
2024/03/17 08:14:21;;;;;;;0.00;0.00;;;;;;;10.92;100.00;100088.22;6186324;23;20008;-79
2024/03/17 08:16:49;;;;;;;0.00;0.00;;;;;;;11.08;100.00;100113.66;6161823;23;20008;-80
2024/03/17 08:19:25;;;;;;;0.10;0.10;;;;;;;11.06;100.00;100109.53;6137344;23;20061;-77
2024/03/17 08:24:39;;;;;;;0.00;0.00;;;;;;;10.97;100.00;100085.47;6175859;23;20079;-78
2024/03/17 08:27:09;;;;;;;0.00;0.00;;;;;;;11.21;100.00;100122.38;6186852;23;20071;-77
2024/03/17 08:29:42;;;;;;;0.00;0.00;;;;;;;11.26;100.00;100119.63;6185005;23;20091;-76
2024/03/17 08:32:18;;;;;;;0.00;0.00;;;;;;;11.44;100.00;100131.88;6187275;23;20005;-78
2024/03/17 08:35:11;;;;;;;;;;;;;;;;;;;;;
2024/03/17 08:38:49;;;;;;;;;;;;;;;;;;;;;
2024/03/17 08:41:04;;;;;;;0.00;0.00;;;;;;;11.53;100.00;100102.81;6196505;23;20503;-78
2024/03/17 08:43:32;;;;;;;0.00;0.00;;;;;;;11.64;100.00;100120.84;6184109;23;20035;-76
2024/03/17 08:46:06;;;;;;;0.00;0.00;;;;;;;11.66;100.00;100131.53;6185221;23;20023;-78
2024/03/17 08:48:37;;;;;;;0.00;0.00;;;;;;;11.68;100.00;100130.16;6182145;23;20027;-79
2024/03/17 08:51:04;;;;;;;0.00;0.00;;;;;;;11.64;100.00;100120.84;6187189;23;20083;-77
2024/03/17 08:53:33;;;;;;;0.00;0.00;;;;;;;11.62;100.00;100138.66;6184029;23;20009;-78
2024/03/17 08:56:00;;;;;;;0.00;0.00;;;;;;;11.47;100.00;100132.13;6213485;23;20004;-77
2024/03/17 08:58:26;;;;;;;0.00;0.00;;;;;;;11.46;100.00;100129.69;6184019;23;20012;-78
2024/03/17 09:01:03;;;;;;;0.00;0.00;;;;;;;11.28;100.00;100122.91;6186028;23;20024;-79
2024/03/17 09:03:28;;;;;;;0.00;0.00;;;;;;;11.38;100.00;100133.00;6160745;23;20012;-79
2024/03/17 09:05:54;;;;;;;0.00;0.00;;;;;;;11.35;100.00;100129.72;6160289;23;20094;-77
2024/03/17 09:08:38;;;;;;;;;;;;;;;;;;;;;
2024/03/17 09:11:12;;;;;;;0.00;0.00;;;;;;;11.53;100.00;100132.94;6189394;23;20091;-76
2024/03/17 09:13:45;;;;;;;0.00;0.00;;;;;;;11.56;100.00;100128.81;6184559;23;20028;-76
2024/03/17 09:19:24;;;;;;;;;;;;;;;;;;;;;
2024/03/17 09:22:00;;;;;;;;;;;;;;;;;;;;;
2024/03/17 09:24:34;;;;;;;0.00;0.00;;;;;;;11.94;100.00;100097.16;6210660;23;20850;-80
2024/03/17 09:27:01;;;;;;;0.00;0.00;;;;;;;12.15;100.00;100118.94;6186172;23;20360;-77
2024/03/17 09:29:34;;;;;;;0.00;0.00;;;;;;;12.30;100.00;100127.09;6183810;23;20092;-77
2024/03/17 09:32:00;;;;;;;0.00;0.00;;;;;;;12.44;100.00;100140.16;6210461;23;20415;-79
2024/03/17 09:34:30;;;;;;;0.00;0.00;;;;;;;12.57;100.00;100153.22;6183812;23;20058;-80
2024/03/17 09:36:56;;;;;;;0.00;0.00;;;;;;;12.57;100.00;100136.75;6212298;23;20005;-79
2024/03/17 09:39:24;;;;;;;0.00;0.00;;;;;;;12.55;100.00;100117.03;6183464;23;20008;-81
2024/03/17 09:41:50;;;;;;;0.00;0.00;;;;;;;12.55;100.00;100117.84;6186083;23;20019;-81
2024/03/17 09:44:17;;;;;;;0.00;0.00;;;;;;;12.57;100.00;100114.81;6184345;23;20000;-77
2024/03/17 09:46:46;;;;;;;0.00;0.00;;;;;;;12.80;100.00;100134.38;6158858;23;20604;-80
2024/03/17 09:49:17;;;;;;;0.00;0.00;;;;;;;12.88;100.00;100148.31;6185497;23;20331;-77
2024/03/17 09:51:44;;;;;;;0.00;0.00;;;;;;;12.84;100.00;100135.44;6135204;23;20019;-77
2024/03/17 09:54:21;;;;;;;0.00;0.00;;;;;;;12.89;100.00;100151.84;6161362;23;20340;-79
2024/03/17 09:56:56;;;;;;;0.00;0.00;;;;;;;12.88;100.00;100161.22;6158654;23;20317;-78
2024/03/17 09:59:50;;;;;;;0.00;0.00;;;;;;;12.84;100.00;100143.69;6185035;23;20004;-76
2024/03/17 10:11:35;;;;;;;;;;;;;;;;;;;;;
2024/03/17 10:28:44;;;;;;;0.00;0.00;;;;;;;15.33;100.00;100158.19;6074087;23;20034;-77
2024/03/17 10:31:10;;;;;;;0.00;0.00;;;;;;;15.67;100.00;100150.66;6087250;23;20034;-75
2024/03/17 10:33:41;;;;;;;0.00;0.00;;;;;;;16.31;100.00;100153.44;6059724;23;20095;-77
2024/03/17 10:36:28;;;;;;;0.00;0.00;;;;;;;16.75;100.00;100128.91;6128079;23;20005;-76
2024/03/17 11:45:36;;;;;;;0.00;0.00;;;;;;;14.89;100.00;100164.19;6208720;22;20035;-77
2024/03/17 11:48:14;;;;;;;0.00;0.00;;;;;;;14.37;100.00;100148.50;6221796;22;20039;-76
2024/03/17 11:50:40;;;;;;;0.00;0.00;;;;;;;14.23;100.00;100147.59;6247599;22;20447;-76
2024/03/17 11:53:21;;;;;;;;;;;;;;;;;;;;;
2024/03/17 11:55:50;;;;;;;0.00;0.00;;;;;;;15.17;100.00;100149.38;6273448;22;20091;-78
2024/03/17 11:58:16;;;;;;;0.00;0.00;;;;;;;17.18;100.00;100128.38;6245621;22;20023;-79
2024/03/17 12:00:51;;;;;;;0.00;0.00;;;;;;;19.86;89.95;100145.56;6220673;22;20082;-76
2024/03/17 12:03:17;;;;;;;0.00;0.00;;;;;;;22.91;65.84;100158.16;6244901;22;20011;-78
2024/03/17 12:05:47;;;;;;;0.00;0.00;;;;;;;23.37;59.43;100141.88;6244438;22;20042;-78
2024/03/17 12:08:36;;;;;;;0.00;0.00;;;;;;;24.25;58.17;100154.72;6272776;22;20003;-77
2024/03/17 12:11:02;;;;;;;0.00;0.00;;;;;;;23.37;54.74;100158.63;6250557;22;20012;-76
2024/03/17 12:13:36;;;;;;;0.00;0.00;;;;;;;21.58;56.79;100129.91;6272201;22;20011;-78
2024/03/17 12:16:13;;;;;;;0.00;0.00;;;;;;;20.16;62.16;100148.31;6245105;22;20011;-76
2024/03/17 12:18:41;;;;;;;0.00;0.00;;;;;;;25.19;56.46;100149.03;6264918;22;20083;-76
2024/03/17 12:21:13;;;;;;;0.00;0.00;;;;;;;31.50;42.04;100124.03;6216329;22;20011;-74
2024/03/17 12:23:40;;;;;;;0.00;0.00;;;;;;;36.97;34.88;100129.41;6244984;22;20407;-76
2024/03/17 12:26:14;;;;;;;0.00;0.00;;;;;;;39.28;26.04;100104.72;6216801;22;20003;-77
2024/03/17 12:28:39;;;;;;;0.00;0.00;;;;;;;37.99;24.08;100110.50;6245198;22;20437;-75
2024/03/17 12:31:05;;;;;;;0.00;0.00;;;;;;;37.62;23.99;100115.91;6192737;22;20007;-76
2024/03/17 12:33:31;;;;;;;0.00;0.00;;;;;;;38.96;22.18;100111.75;6272641;22;20023;-76
2024/03/17 12:36:01;;;;;;;0.00;0.00;;;;;;;39.91;21.21;100109.38;6200237;22;20000;-79
2024/03/17 12:38:26;;;;;;;0.00;0.00;;;;;;;39.19;21.66;100092.47;6189838;22;20034;-76
2024/03/17 12:40:52;;;;;;;0.00;0.00;;;;;;;36.86;22.70;100097.66;6221430;22;20335;-77
2024/03/17 12:43:17;;;;;;;0.00;0.00;;;;;;;31.81;27.32;100093.88;6244066;22;20012;-77
2024/03/17 12:45:46;;;;;;;0.00;0.00;;;;;;;32.56;29.37;100101.91;6239744;23;20013;-77
2024/03/17 12:48:14;;;;;;;0.00;0.00;;;;;;;32.60;27.78;100092.13;6215743;23;20070;-79
2024/03/17 12:51:22;;;;;;;0.00;0.00;;;;;;;34.01;26.62;100101.97;6212043;23;20377;-76
2024/03/17 12:53:50;;;;;;;0.00;0.00;;;;;;;36.73;23.26;100085.44;6239599;22;20030;-76
2024/03/17 13:02:01;;;;;;;0.00;0.00;;;;;;;40.47;19.38;100105.19;6240773;23;20023;-76
2024/03/17 13:04:26;;;;;;;0.00;0.00;;;;;;;40.31;18.70;100091.22;6208108;23;20070;-78
2024/03/17 13:06:54;;;;;;;0.00;0.00;;;;;;;40.76;18.88;100098.09;6213954;23;20503;-76
2024/03/17 13:09:19;;;;;;;0.00;0.00;;;;;;;39.83;18.69;100085.22;6213306;23;20019;-76
2024/03/17 13:11:46;;;;;;;0.00;0.00;;;;;;;34.55;23.09;100078.19;6239700;23;20004;-77
2024/03/17 13:14:17;;;;;;;0.00;0.00;;;;;;;30.46;27.98;100081.19;6239653;23;20011;-77
2024/03/17 13:16:42;;;;;;;0.00;0.00;;;;;;;27.64;32.44;100067.19;6240745;22;20054;-77
2024/03/17 13:19:09;;;;;;;0.00;0.00;;;;;;;26.89;34.33;100073.78;6212408;23;20008;-77
2024/03/17 13:21:34;;;;;;;0.00;0.00;;;;;;;25.01;36.78;100069.56;6242502;23;20035;-76
2024/03/17 13:23:59;;;;;;;0.00;0.00;;;;;;;25.79;38.43;100069.25;6185765;23;20015;-76